Time;durP1;ratioP1;P1;durP2;ratioP2;P2;SDS_P1;SDS_P2;PMS_P1;PMS_P2;Temp;Humidity;BMP_temperature;BMP_pressure;BME280_temperature;BME280_humidity;BME280_pressure;Samples;Min_cycle;Max_cycle;Signal;HPM_P1;HPM_P2
2024/02/05 00:00:00;;;;;;;8.70;3.20;;;;;;;5.48;86.13;98715.48;102331;1273;108533;-66
2024/02/05 00:02:57;;;;;;;9.50;3.40;;;;;;;5.47;86.14;98732.89;102663;1273;98395;-66
2024/02/05 00:05:24;;;;;;;6.80;2.90;;;;;;;5.43;86.46;98735.09;102415;1272;107734;-67
2024/02/05 00:07:51;;;;;;;8.60;3.50;;;;;;;5.44;86.55;98727.84;102551;1272;139336;-66
2024/02/05 00:10:23;;;;;;;10.40;3.30;;;;;;;5.43;86.60;98715.27;102488;1267;111113;-67
2024/02/05 00:12:49;;;;;;;7.40;3.00;;;;;;;5.43;86.79;98727.17;102186;1273;138571;-66
2024/02/05 00:15:17;;;;;;;8.70;3.20;;;;;;;5.43;86.84;98723.90;102398;1267;97755;-66
2024/02/05 00:17:44;;;;;;;7.90;3.10;;;;;;;5.42;87.02;98716.34;102392;1272;108345;-66
2024/02/05 00:20:13;;;;;;;8.40;3.20;;;;;;;5.42;87.30;98708.08;102328;1267;138686;-66
2024/02/05 00:22:42;;;;;;;9.40;3.20;;;;;;;5.42;87.53;98716.71;102567;1272;110739;-65
2024/02/05 00:25:10;;;;;;;7.10;3.10;;;;;;;5.42;87.65;98714.45;102407;1267;138080;-67
2024/02/05 00:27:37;;;;;;;13.40;3.50;;;;;;;5.41;87.79;98709.13;102564;1267;97805;-67
2024/02/05 00:30:05;;;;;;;8.10;3.00;;;;;;;5.40;87.88;98716.92;102391;1272;108387;-66
2024/02/05 00:32:31;;;;;;;6.80;3.10;;;;;;;5.40;88.16;98717.98;102989;1267;140163;-66
2024/02/05 00:34:59;;;;;;;11.70;3.30;;;;;;;5.39;88.32;98702.68;102622;1268;110959;-67
2024/02/05 00:37:26;;;;;;;6.30;3.10;;;;;;;5.37;88.68;98694.45;102232;1270;138364;-66
2024/02/05 00:39:53;;;;;;;10.90;3.40;;;;;;;5.35;88.78;98690.75;102425;1267;97846;-67
2024/02/05 00:42:20;;;;;;;7.50;3.10;;;;;;;5.33;88.93;98693.92;102421;1267;107566;-67
2024/02/05 00:44:47;;;;;;;9.40;3.00;;;;;;;5.32;89.08;98693.94;102425;1267;97830;-66
2024/02/05 00:47:13;;;;;;;10.60;3.30;;;;;;;5.31;89.09;98689.01;102443;1267;112064;-66
2024/02/05 00:49:40;;;;;;;8.90;3.60;;;;;;;5.31;89.13;98684.36;102223;1267;138353;-66
2024/02/05 00:52:08;;;;;;;10.80;3.10;;;;;;;5.31;89.63;98683.98;102368;1270;97847;-66
2024/02/05 00:54:35;;;;;;;7.90;3.30;;;;;;;5.31;89.47;98689.33;102288;1267;138222;-66
2024/02/05 00:57:03;;;;;;;12.20;4.00;;;;;;;5.30;89.71;98676.28;102368;1273;97726;-66
2024/02/05 00:59:30;;;;;;;6.60;2.70;;;;;;;5.29;89.81;98674.92;103829;1267;110339;-67
2024/02/05 01:01:57;;;;;;;9.60;4.00;;;;;;;5.29;89.73;98683.21;103564;1267;140284;-65
2024/02/05 01:04:25;;;;;;;9.00;3.20;;;;;;;5.30;89.73;98672.98;102384;1267;97897;-67
2024/02/05 01:06:53;;;;;;;7.20;3.10;;;;;;;5.32;89.81;98676.20;102289;1272;139863;-66
2024/02/05 01:09:21;;;;;;;7.60;3.10;;;;;;;5.34;89.69;98678.88;102368;1267;97806;-67
2024/02/05 01:11:48;;;;;;;5.70;2.80;;;;;;;5.33;89.65;98664.95;102606;1267;112556;-67
2024/02/05 01:14:15;;;;;;;7.20;3.10;;;;;;;5.37;89.34;98676.02;102297;1272;138125;-67
2024/02/05 01:16:42;;;;;;;10.00;3.00;;;;;;;5.39;89.20;98676.80;102344;1267;98356;-67
2024/02/05 01:19:08;;;;;;;7.90;2.90;;;;;;;5.42;89.42;98673.59;102333;1267;138364;-66
2024/02/05 01:21:35;;;;;;;5.30;2.80;;;;;;;5.44;89.13;98671.45;102360;1267;97700;-67
2024/02/05 01:24:02;;;;;;;5.90;2.80;;;;;;;5.45;88.94;98666.05;102380;1267;110229;-67
2024/02/05 01:26:29;;;;;;;5.90;2.90;;;;;;;5.48;88.93;98677.16;102228;1267;139488;-67
2024/02/05 01:28:56;;;;;;;7.50;3.00;;;;;;;5.51;88.68;98676.21;102403;1267;97940;-67
2024/02/05 01:31:23;;;;;;;5.80;2.90;;;;;;;5.53;88.45;98670.59;102251;1268;138791;-67
2024/02/05 01:33:50;;;;;;;7.40;2.70;;;;;;;5.56;88.46;98659.65;102364;1267;98527;-65
2024/02/05 01:36:19;;;;;;;7.20;2.80;;;;;;;5.58;88.53;98661.14;102300;1267;111415;-65
2024/02/05 01:38:46;;;;;;;7.80;2.90;;;;;;;5.59;88.34;98656.44;102402;1271;108178;-66
2024/02/05 01:41:13;;;;;;;7.20;2.80;;;;;;;5.60;88.31;98658.27;102432;1267;97934;-66
2024/02/05 01:43:40;;;;;;;7.30;3.10;;;;;;;5.61;88.21;98645.50;102293;1267;138245;-65
2024/02/05 01:46:08;;;;;;;6.10;2.90;;;;;;;5.62;88.34;98651.32;102461;1267;98466;-65
2024/02/05 01:48:38;;;;;;;7.30;3.00;;;;;;;5.62;88.13;98641.30;102337;1267;138291;-66
2024/02/05 01:51:06;;;;;;;5.20;2.60;;;;;;;5.61;88.24;98638.42;102367;1272;107640;-66
2024/02/05 01:53:34;;;;;;;4.80;2.80;;;;;;;5.60;88.12;98632.59;103039;1267;97854;-66
2024/02/05 01:56:01;;;;;;;7.10;3.10;;;;;;;5.59;88.26;98630.41;102188;1267;137932;-66
2024/02/05 01:58:30;;;;;;;8.90;3.00;;;;;;;5.59;88.22;98641.44;102401;1271;98384;-66
2024/02/05 02:00:57;;;;;;;6.10;2.90;;;;;;;5.60;88.18;98638.31;102646;1267;138263;-65
2024/02/05 02:03:27;;;;;;;6.60;2.90;;;;;;;5.60;88.14;98627.77;102332;1272;107950;-66
2024/02/05 02:05:54;;;;;;;8.50;3.20;;;;;;;5.61;88.22;98625.33;102411;1268;97709;-66
2024/02/05 02:08:23;;;;;;;5.20;3.20;;;;;;;5.63;88.09;98630.60;102222;1272;139095;-67
2024/02/05 02:10:51;;;;;;;6.60;3.10;;;;;;;5.64;87.91;98625.88;102424;1267;97934;-66
2024/02/05 02:13:18;;;;;;;5.40;2.20;;;;;;;5.65;87.76;98628.11;102222;1273;138091;-66
2024/02/05 02:15:46;;;;;;;6.80;2.40;;;;;;;5.65;87.78;98621.20;103365;1267;107220;-66
2024/02/05 02:18:14;;;;;;;4.70;2.60;;;;;;;5.66;87.85;98619.98;102345;1272;131126;-66
2024/02/05 02:20:46;;;;;;;4.40;2.40;;;;;;;5.67;87.72;98621.48;102321;1267;138827;-66
2024/02/05 02:23:20;;;;;;;7.70;2.90;;;;;;;5.66;87.67;98616.66;102881;1267;97867;-65
2024/02/05 02:25:51;;;;;;;5.40;2.60;;;;;;;5.65;87.88;98621.36;102354;1268;137920;-66
2024/02/05 02:28:17;;;;;;;5.00;2.70;;;;;;;5.67;88.00;98616.48;103383;1267;107812;-67
2024/02/05 02:30:45;;;;;;;6.60;2.40;;;;;;;5.66;88.02;98609.61;102523;1267;138473;-68
2024/02/05 02:33:19;;;;;;;5.70;2.40;;;;;;;5.66;88.30;98603.59;102368;1267;107472;-67
2024/02/05 02:35:51;;;;;;;3.90;2.50;;;;;;;5.65;88.24;98610.34;103087;1267;97820;-65
2024/02/05 02:38:25;;;;;;;3.30;2.70;;;;;;;5.65;88.47;98604.64;102343;1267;137860;-66
2024/02/05 02:40:58;;;;;;;5.70;2.50;;;;;;;5.65;89.05;98595.68;102396;1267;108235;-67
2024/02/05 02:43:25;;;;;;;4.70;2.30;;;;;;;5.63;89.19;98591.62;103155;1267;138013;-65
2024/02/05 02:45:55;;;;;;;3.80;2.80;;;;;;;5.62;89.35;98590.14;102283;1267;108232;-65
2024/02/05 02:48:22;;;;;;;5.60;2.60;;;;;;;5.60;89.38;98588.48;102418;1267;97898;-66
2024/02/05 02:50:49;;;;;;;4.20;3.20;;;;;;;5.58;89.47;98569.94;102392;1267;112039;-66
2024/02/05 02:53:16;;;;;;;4.80;2.60;;;;;;;5.56;89.62;98581.04;102416;1267;107313;-65
2024/02/05 02:55:43;;;;;;;5.30;3.00;;;;;;;5.54;89.69;98573.52;102227;1267;138777;-66
2024/02/05 02:58:10;;;;;;;3.90;2.70;;;;;;;5.52;89.71;98571.54;102382;1267;108299;-66
2024/02/05 03:00:37;;;;;;;4.40;2.80;;;;;;;5.50;89.98;98570.05;102215;1272;138476;-65
2024/02/05 03:03:05;;;;;;;5.20;2.30;;;;;;;5.48;90.24;98563.23;102299;1267;111460;-66
2024/02/05 03:05:32;;;;;;;4.50;2.30;;;;;;;5.45;90.34;98556.27;102463;1267;108891;-66
2024/02/05 03:07:58;;;;;;;4.90;2.40;;;;;;;5.45;90.32;98558.86;102336;1267;138154;-66
2024/02/05 03:10:25;;;;;;;2.80;2.40;;;;;;;5.45;90.17;98554.05;102431;1267;108120;-65
2024/02/05 03:12:52;;;;;;;4.00;1.90;;;;;;;5.45;90.14;98558.16;102326;1267;138486;-66
2024/02/05 03:15:20;;;;;;;2.50;1.80;;;;;;;5.44;90.30;98555.45;102419;1267;111230;-66
2024/02/05 03:17:47;;;;;;;4.00;1.70;;;;;;;5.43;90.25;98553.07;102402;1267;107253;-66
2024/02/05 03:20:34;;;;;;;3.40;1.80;;;;;;;5.43;90.33;98555.83;102230;1267;139253;-65
2024/02/05 03:23:01;;;;;;;3.80;2.40;;;;;;;5.42;90.55;98553.45;102372;1267;107526;-66
2024/02/05 03:25:36;;;;;;;3.30;2.30;;;;;;;5.41;91.05;98549.00;102318;1273;138280;-66
2024/02/05 03:28:03;;;;;;;2.60;2.40;;;;;;;5.40;91.31;98542.71;102372;1267;111437;-66
2024/02/05 03:30:31;;;;;;;4.00;2.70;;;;;;;5.39;91.42;98550.65;102266;1267;138379;-65
2024/02/05 03:32:59;;;;;;;4.10;2.90;;;;;;;5.38;91.69;98545.33;102372;1267;97806;-65
2024/02/05 03:35:26;;;;;;;4.30;2.80;;;;;;;5.37;92.20;98556.21;102410;1272;108333;-65
2024/02/05 03:37:54;;;;;;;5.90;2.90;;;;;;;5.36;91.91;98559.70;102179;1267;138338;-66
2024/02/05 03:40:22;;;;;;;3.00;2.40;;;;;;;5.36;92.26;98552.29;102461;1267;112124;-65
2024/02/05 03:42:49;;;;;;;3.50;2.60;;;;;;;5.36;92.53;98555.73;102956;1270;138252;-66
2024/02/05 03:45:16;;;;;;;4.30;2.90;;;;;;;5.35;92.90;98557.15;102843;1267;97703;-67
2024/02/05 03:47:43;;;;;;;2.80;2.60;;;;;;;5.34;92.76;98561.52;102415;1267;108660;-66
2024/02/05 03:50:11;;;;;;;2.80;2.60;;;;;;;5.35;92.93;98555.09;102278;1267;138094;-65
2024/02/05 03:52:39;;;;;;;3.00;2.70;;;;;;;5.36;92.99;98555.23;102582;1267;111249;-66
2024/02/05 03:55:07;;;;;;;2.70;2.40;;;;;;;5.35;93.29;98545.47;102268;1267;139262;-65
2024/02/05 03:57:35;;;;;;;2.80;2.60;;;;;;;5.36;93.31;98546.09;102610;1267;97856;-66
2024/02/05 04:00:02;;;;;;;2.90;2.60;;;;;;;5.37;93.35;98538.99;102388;1267;107181;-64
2024/02/05 04:02:37;;;;;;;2.80;2.50;;;;;;;5.37;93.44;98550.90;102353;1269;138253;-66
2024/02/05 04:05:04;;;;;;;3.20;2.70;;;;;;;5.37;93.45;98547.08;102347;1267;111749;-65
2024/02/05 04:07:31;;;;;;;3.50;2.60;;;;;;;5.39;93.37;98550.66;102598;1271;138667;-66
2024/02/05 04:09:57;;;;;;;4.10;2.70;;;;;;;5.39;93.62;98545.66;102434;1267;97981;-65
2024/02/05 04:12:24;;;;;;;3.20;2.80;;;;;;;5.41;93.85;98535.25;102387;1273;107663;-66
2024/02/05 04:14:51;;;;;;;4.00;3.10;;;;;;;5.41;93.83;98528.15;102433;1267;97941;-65
2024/02/05 04:17:18;;;;;;;3.50;3.00;;;;;;;5.43;93.65;98531.86;102498;1267;111324;-65
2024/02/05 04:19:45;;;;;;;3.60;2.80;;;;;;;5.44;94.02;98518.23;102312;1273;138096;-65
2024/02/05 04:22:12;;;;;;;3.70;2.80;;;;;;;5.44;94.11;98519.25;102349;1267;98449;-65
2024/02/05 04:24:40;;;;;;;4.00;2.70;;;;;;;5.44;94.19;98516.16;102326;1272;139300;-65
2024/02/05 04:27:07;;;;;;;3.60;3.30;;;;;;;5.44;94.03;98524.25;102412;1272;97853;-65
2024/02/05 04:29:34;;;;;;;3.10;2.70;;;;;;;5.43;94.25;98523.59;103133;1272;110425;-66
2024/02/05 04:32:01;;;;;;;3.40;2.70;;;;;;;5.42;94.19;98514.68;103091;1267;138786;-66
2024/02/05 04:34:28;;;;;;;3.20;2.50;;;;;;;5.42;94.17;98516.08;103674;1267;96057;-66
2024/02/05 04:36:55;;;;;;;3.50;2.50;;;;;;;5.41;94.16;98511.44;102612;1271;138055;-66
2024/02/05 04:39:22;;;;;;;3.80;2.70;;;;;;;5.42;94.19;98517.98;102439;1272;97665;-66
2024/02/05 04:41:50;;;;;;;2.40;2.20;;;;;;;5.41;94.15;98510.92;102418;1267;110998;-66
2024/02/05 04:44:16;;;;;;;3.80;2.70;;;;;;;5.43;93.97;98505.70;102304;1267;138617;-66
2024/02/05 04:46:44;;;;;;;2.50;2.30;;;;;;;5.45;93.97;98507.16;102436;1267;97716;-67
2024/02/05 04:49:11;;;;;;;2.90;2.20;;;;;;;5.47;93.90;98496.41;102252;1272;138250;-66
2024/02/05 04:51:38;;;;;;;3.60;2.70;;;;;;;5.48;93.63;98500.66;102430;1273;97694;-66
2024/02/05 04:54:05;;;;;;;2.40;2.20;;;;;;;5.49;93.65;98504.07;102377;1272;111335;-66
2024/02/05 04:56:32;;;;;;;3.50;2.50;;;;;;;5.48;93.64;98494.47;102837;1267;138077;-66
2024/02/05 04:58:59;;;;;;;2.60;2.40;;;;;;;5.50;93.60;98485.43;102407;1271;97715;-66
2024/02/05 05:01:26;;;;;;;3.80;2.30;;;;;;;5.49;93.40;98485.98;102201;1272;137956;-66
2024/02/05 05:03:53;;;;;;;2.90;2.40;;;;;;;5.50;93.42;98488.70;102471;1270;97766;-67
2024/02/05 05:06:19;;;;;;;3.20;2.40;;;;;;;5.51;93.36;98490.20;102335;1272;111100;-66
2024/02/05 05:08:46;;;;;;;3.80;2.30;;;;;;;5.52;93.39;98489.30;102199;1267;137843;-66
2024/02/05 05:11:22;;;;;;;2.90;2.40;;;;;;;5.53;93.43;98494.97;102404;1267;97817;-65
2024/02/05 05:13:50;;;;;;;4.60;2.80;;;;;;;5.53;93.44;98499.42;102575;1267;137974;-65
2024/02/05 05:16:18;;;;;;;3.50;2.90;;;;;;;5.55;93.59;98504.36;102386;1267;97853;-66
2024/02/05 05:18:45;;;;;;;3.20;3.60;;;;;;;5.55;93.77;98502.27;102835;1268;138055;-68
2024/02/05 05:21:12;;;;;;;3.60;3.10;;;;;;;5.55;93.58;98496.39;102262;1267;107616;-66
2024/02/05 05:23:41;;;;;;;3.30;2.80;;;;;;;5.56;93.54;98495.69;102334;1267;98387;-67
2024/02/05 05:26:08;;;;;;;4.60;3.10;;;;;;;5.57;93.79;98499.63;102327;1268;138008;-65
2024/02/05 05:28:34;;;;;;;3.60;2.80;;;;;;;5.57;93.64;98498.59;102354;1273;98593;-66
2024/02/05 05:31:01;;;;;;;3.40;2.80;;;;;;;5.58;93.74;98492.52;102334;1267;139218;-66
2024/02/05 05:33:28;;;;;;;3.30;3.00;;;;;;;5.57;93.91;98490.15;102478;1270;107379;-66
2024/02/05 05:35:55;;;;;;;2.80;2.60;;;;;;;5.58;93.73;98489.45;102463;1267;97966;-66
2024/02/05 05:38:22;;;;;;;3.10;2.80;;;;;;;5.57;93.72;98488.08;102328;1271;137941;-66
2024/02/05 05:40:49;;;;;;;3.10;2.80;;;;;;;5.57;93.61;98493.25;102433;1272;97867;-66
2024/02/05 05:43:16;;;;;;;3.50;2.80;;;;;;;5.56;93.74;98491.55;102337;1267;138467;-66
2024/02/05 05:45:44;;;;;;;3.90;2.70;;;;;;;5.56;93.89;98492.41;102436;1267;108073;-66
2024/02/05 05:48:11;;;;;;;3.90;2.70;;;;;;;5.54;93.85;98491.46;102643;1267;97815;-66
2024/02/05 05:50:37;;;;;;;3.20;2.80;;;;;;;5.56;93.97;98492.60;102276;1267;137950;-67
2024/02/05 05:53:04;;;;;;;3.70;2.90;;;;;;;5.55;93.96;98498.13;102341;1273;97830;-67
2024/02/05 05:55:31;;;;;;;3.00;2.80;;;;;;;5.57;93.93;98493.60;102343;1267;138240;-65
2024/02/05 05:57:58;;;;;;;2.80;2.60;;;;;;;5.56;93.87;98506.38;102526;1267;108436;-67
2024/02/05 06:00:25;;;;;;;3.30;2.80;;;;;;;5.56;94.04;98502.73;102406;1267;97710;-66
2024/02/05 06:02:52;;;;;;;2.80;2.60;;;;;;;5.57;93.91;98499.11;102453;1272;107655;-66
2024/02/05 06:05:19;;;;;;;3.20;2.70;;;;;;;5.58;94.01;98513.91;102399;1272;97771;-66
2024/02/05 06:07:46;;;;;;;2.60;2.30;;;;;;;5.59;94.00;98509.21;102337;1272;137950;-68
2024/02/05 06:10:13;;;;;;;2.90;2.50;;;;;;;5.59;94.08;98512.13;102455;1267;107368;-66
2024/02/05 06:12:43;;;;;;;3.30;2.70;;;;;;;5.58;94.13;98514.39;102345;1267;138638;-67
2024/02/05 06:15:14;;;;;;;3.00;2.40;;;;;;;5.58;94.08;98495.83;102384;1272;107404;-66
2024/02/05 06:17:41;;;;;;;3.20;2.40;;;;;;;5.57;94.22;98499.79;103771;1267;95659;-67
2024/02/05 06:20:10;;;;;;;3.30;2.20;;;;;;;5.58;94.15;98517.16;102321;1267;138992;-67
2024/02/05 06:22:42;;;;;;;2.20;2.00;;;;;;;5.59;94.05;98514.55;103686;1267;108039;-67
2024/02/05 06:25:09;;;;;;;2.60;2.10;;;;;;;5.60;94.18;98527.44;102187;1267;138143;-66
2024/02/05 06:27:39;;;;;;;2.40;2.00;;;;;;;5.62;93.86;98522.38;102313;1267;108207;-67
2024/02/05 06:30:09;;;;;;;2.00;1.90;;;;;;;5.62;93.78;98524.59;102364;1272;97854;-65
2024/02/05 06:32:35;;;;;;;3.20;1.90;;;;;;;5.66;93.58;98520.28;102411;1267;139020;-66
2024/02/05 06:35:02;;;;;;;1.80;1.60;;;;;;;5.68;93.73;98514.00;102310;1273;106773;-66
2024/02/05 06:37:29;;;;;;;2.50;1.60;;;;;;;5.71;93.47;98511.79;102297;1268;138542;-67
2024/02/05 06:39:56;;;;;;;2.90;1.70;;;;;;;5.75;93.56;98507.36;102268;1272;107615;-66
2024/02/05 06:42:23;;;;;;;1.50;1.40;;;;;;;5.78;93.35;98511.02;100112;1267;1003779;-67
2024/02/05 06:44:51;;;;;;;2.40;1.70;;;;;;;5.80;93.10;98502.48;102506;1268;111985;-67
2024/02/05 06:47:18;;;;;;;2.10;1.70;;;;;;;5.81;92.97;98522.95;102502;1267;106658;-67
2024/02/05 06:49:45;;;;;;;1.90;1.70;;;;;;;5.85;93.05;98526.44;102259;1267;138622;-66
2024/02/05 06:52:12;;;;;;;2.40;1.60;;;;;;;5.86;92.92;98521.20;102382;1271;107618;-67
2024/02/05 06:54:39;;;;;;;2.00;1.60;;;;;;;5.88;92.54;98515.11;102204;1267;138245;-67
2024/02/05 06:57:06;;;;;;;1.50;1.40;;;;;;;5.90;92.71;98529.86;102270;1267;110325;-67
2024/02/05 06:59:33;;;;;;;1.70;1.40;;;;;;;5.93;92.49;98531.31;102394;1267;107981;-66
2024/02/05 07:02:00;;;;;;;2.00;1.50;;;;;;;5.96;92.38;98534.82;102154;1273;138249;-66
2024/02/05 07:04:27;;;;;;;2.40;1.40;;;;;;;5.98;92.23;98540.26;102474;1273;107267;-66
2024/02/05 07:06:55;;;;;;;1.50;1.40;;;;;;;5.99;91.82;98536.06;102283;1273;138837;-66
2024/02/05 07:09:25;;;;;;;1.60;1.50;;;;;;;6.00;91.75;98538.41;102405;1267;111325;-67
2024/02/05 07:11:52;;;;;;;1.30;1.20;;;;;;;6.04;91.48;98537.77;102422;1267;107501;-67
2024/02/05 07:14:18;;;;;;;1.40;1.20;;;;;;;6.07;91.36;98539.87;102272;1267;139743;-67
2024/02/05 07:16:45;;;;;;;1.90;1.30;;;;;;;6.10;91.15;98547.35;102194;1271;108786;-66
2024/02/05 07:19:12;;;;;;;2.00;1.30;;;;;;;6.12;90.69;98541.75;102196;1267;138164;-67
2024/02/05 07:21:39;;;;;;;1.40;1.10;;;;;;;6.16;90.45;98558.16;102463;1267;110502;-67
2024/02/05 07:24:06;;;;;;;1.60;1.30;;;;;;;6.19;90.33;98559.55;102278;1267;108332;-67
2024/02/05 07:26:36;;;;;;;1.80;1.40;;;;;;;6.24;90.27;98555.02;103117;1267;138005;-68
2024/02/05 07:29:04;;;;;;;1.80;1.40;;;;;;;6.29;90.08;98553.46;102139;1272;108462;-67
2024/02/05 07:31:31;;;;;;;1.20;1.10;;;;;;;6.34;89.81;98559.81;102181;1267;138088;-67
2024/02/05 07:33:58;;;;;;;1.20;1.10;;;;;;;6.39;89.26;98556.14;102360;1272;112456;-67
2024/02/05 07:36:26;;;;;;;1.60;1.00;;;;;;;6.45;88.48;98557.10;102251;1272;107704;-65
2024/02/05 07:38:56;;;;;;;1.00;0.90;;;;;;;6.48;87.73;98568.55;102575;1268;97824;-67
2024/02/05 07:41:22;;;;;;;1.30;1.00;;;;;;;6.52;87.60;98558.35;102326;1267;107052;-67
2024/02/05 07:43:49;;;;;;;1.40;1.00;;;;;;;6.61;87.25;98558.13;102197;1267;138497;-66
2024/02/05 07:46:16;;;;;;;3.20;0.90;;;;;;;6.67;86.37;98578.95;102430;1268;110252;-65
2024/02/05 07:48:43;;;;;;;1.20;0.80;;;;;;;6.74;86.28;98588.17;102206;1268;141155;-67
2024/02/05 07:51:10;;;;;;;1.50;0.90;;;;;;;6.79;86.02;98598.45;102439;1267;97834;-64
2024/02/05 07:53:37;;;;;;;2.70;1.20;;;;;;;6.84;86.23;98596.34;102414;1267;107533;-67
2024/02/05 07:56:09;;;;;;;1.80;1.00;;;;;;;6.86;86.30;98592.13;102316;1267;138829;-63
2024/02/05 07:58:36;;;;;;;1.90;1.10;;;;;;;7.01;89.08;98593.86;103744;1267;111438;-63
2024/02/05 08:01:03;;;;;;;1.40;1.00;;;;;;;7.16;88.45;98600.30;102180;1267;138349;-65
2024/02/05 08:03:34;;;;;;;0.90;0.80;;;;;;;7.23;86.35;98609.00;102424;1267;98551;-65
2024/02/05 08:06:06;;;;;;;1.40;1.20;;;;;;;7.23;84.56;98605.50;102390;1272;108229;-66
2024/02/05 08:08:33;;;;;;;2.10;0.90;;;;;;;7.29;84.80;98605.60;102150;1272;138024;-65
2024/02/05 08:11:00;;;;;;;2.30;1.20;;;;;;;7.41;84.16;98593.83;102372;1268;110430;-66
2024/02/05 08:13:27;;;;;;;1.90;1.10;;;;;;;7.51;83.75;98607.15;102255;1272;138181;-66
2024/02/05 08:15:54;;;;;;;2.60;1.10;;;;;;;7.55;83.14;98613.24;102434;1272;98352;-65
2024/02/05 08:18:21;;;;;;;2.40;2.10;;;;;;;7.54;83.13;98619.14;102383;1267;107371;-65
2024/02/05 08:20:48;;;;;;;2.30;1.40;;;;;;;7.53;82.90;98621.08;102164;1268;137947;-65
2024/02/05 08:23:15;;;;;;;2.20;1.30;;;;;;;7.50;81.73;98610.50;102422;1267;110561;-64
2024/02/05 08:25:42;;;;;;;1.30;1.00;;;;;;;7.43;81.66;98617.75;102272;1267;138754;-64
2024/02/05 08:28:08;;;;;;;1.20;0.90;;;;;;;7.41;81.77;98622.54;102345;1268;97984;-65
2024/02/05 08:30:35;;;;;;;1.80;1.10;;;;;;;7.42;80.77;98608.15;102235;1270;138972;-66
2024/02/05 08:33:03;;;;;;;1.20;0.90;;;;;;;7.41;80.32;98609.54;102492;1267;97843;-67
2024/02/05 08:35:30;;;;;;;2.10;1.40;;;;;;;7.43;80.20;98613.28;102253;1273;111917;-66
2024/02/05 08:37:57;;;;;;;1.20;0.80;;;;;;;7.48;80.55;98639.84;102123;1267;138215;-66
2024/02/05 08:40:24;;;;;;;0.90;0.80;;;;;;;7.53;80.05;98630.95;102379;1267;97704;-67
2024/02/05 08:42:51;;;;;;;2.00;1.00;;;;;;;7.60;79.72;98635.12;102283;1267;138201;-67
2024/02/05 08:45:18;;;;;;;0.80;0.70;;;;;;;7.67;78.87;98633.79;102256;1272;97876;-67
2024/02/05 08:47:46;;;;;;;1.30;0.70;;;;;;;7.70;78.38;98648.70;102303;1267;111905;-67
2024/02/05 08:50:14;;;;;;;2.10;0.80;;;;;;;7.72;78.09;98645.84;102157;1267;138437;-66
2024/02/05 08:52:41;;;;;;;0.80;0.70;;;;;;;7.74;77.81;98648.84;102325;1267;97844;-68
2024/02/05 08:55:09;;;;;;;0.80;0.70;;;;;;;7.81;77.87;98649.57;102330;1268;138218;-65
2024/02/05 08:57:36;;;;;;;1.30;0.60;;;;;;;7.88;77.79;98658.05;102685;1267;97826;-67
2024/02/05 09:00:09;;;;;;;1.70;1.10;;;;;;;7.93;76.45;98635.69;102395;1267;111405;-66
2024/02/05 09:02:36;;;;;;;2.00;1.30;;;;;;;7.96;76.33;98652.88;102751;1267;138254;-66
2024/02/05 09:05:04;;;;;;;2.70;1.40;;;;;;;7.96;76.50;98663.27;102229;1267;98330;-66
2024/02/05 09:07:30;;;;;;;1.40;1.10;;;;;;;7.99;76.22;98667.44;102289;1272;138815;-66
2024/02/05 09:09:57;;;;;;;2.00;1.00;;;;;;;8.00;75.84;98668.77;102420;1272;97905;-65
2024/02/05 09:12:24;;;;;;;1.30;1.00;;;;;;;8.02;75.78;98679.91;102343;1267;112677;-65
2024/02/05 09:14:51;;;;;;;2.30;1.10;;;;;;;8.05;75.82;98677.69;102238;1273;138046;-65
2024/02/05 09:17:19;;;;;;;1.80;1.10;;;;;;;8.07;75.85;98685.04;102428;1267;97809;-65
2024/02/05 09:19:48;;;;;;;1.40;1.20;;;;;;;8.09;75.07;98688.27;102228;1267;138046;-65
2024/02/05 09:22:15;;;;;;;2.00;1.00;;;;;;;8.09;75.06;98689.63;102441;1268;97713;-65
2024/02/05 09:24:42;;;;;;;2.10;1.00;;;;;;;8.05;75.05;98698.13;102368;1271;138258;-66
2024/02/05 09:27:09;;;;;;;1.30;1.00;;;;;;;8.03;75.44;98713.63;102304;1267;107959;-65
2024/02/05 09:29:36;;;;;;;1.70;1.00;;;;;;;8.06;75.47;98703.75;102391;1272;97710;-65
2024/02/05 09:32:04;;;;;;;1.40;1.00;;;;;;;8.06;75.52;98702.73;102306;1267;138260;-66
2024/02/05 09:34:32;;;;;;;2.80;1.30;;;;;;;8.08;75.85;98709.94;103180;1267;97822;-65
2024/02/05 09:36:59;;;;;;;2.20;1.40;;;;;;;8.08;76.03;98701.61;102193;1268;138395;-65
2024/02/05 09:39:27;;;;;;;1.70;1.10;;;;;;;8.15;76.27;98698.86;102432;1267;107421;-65
2024/02/05 09:42:00;;;;;;;1.60;1.10;;;;;;;8.21;76.04;98702.20;102420;1268;97719;-66
2024/02/05 09:44:28;;;;;;;3.00;1.40;;;;;;;8.26;76.32;98706.50;102369;1273;138293;-66
2024/02/05 09:46:57;;;;;;;4.20;1.30;;;;;;;8.33;76.27;98708.05;102508;1268;99029;-66
2024/02/05 09:49:24;;;;;;;1.30;1.20;;;;;;;8.34;74.92;98702.81;102275;1267;139060;-66
2024/02/05 09:51:52;;;;;;;2.10;1.10;;;;;;;8.28;75.03;98706.21;102396;1272;108166;-66
2024/02/05 09:54:20;;;;;;;2.60;0.90;;;;;;;8.19;74.88;98709.20;102252;1268;97828;-66
2024/02/05 09:56:50;;;;;;;2.00;1.20;;;;;;;8.07;74.73;98697.66;102269;1267;137989;-65
2024/02/05 09:59:17;;;;;;;2.20;1.10;;;;;;;8.06;74.73;98707.77;102383;1268;97829;-65
2024/02/05 10:01:45;;;;;;;3.30;1.30;;;;;;;8.03;75.18;98705.84;102280;1273;138102;-65
2024/02/05 10:04:16;;;;;;;1.70;1.00;;;;;;;8.01;75.10;98696.55;102367;1268;108503;-66
2024/02/05 10:06:46;;;;;;;2.40;1.20;;;;;;;7.98;75.08;98710.02;102199;1267;139977;-65
2024/02/05 10:09:13;;;;;;;1.90;1.10;;;;;;;7.95;75.55;98715.06;102699;1267;107312;-66
2024/02/05 10:11:43;;;;;;;1.60;1.00;;;;;;;7.85;75.84;98703.16;102418;1273;97919;-64
2024/02/05 10:14:10;;;;;;;2.10;1.00;;;;;;;7.73;75.50;98693.18;102277;1273;138207;-65
2024/02/05 10:16:39;;;;;;;2.90;1.00;;;;;;;7.58;75.70;98697.49;102351;1267;108335;-65
2024/02/05 10:19:06;;;;;;;3.10;1.20;;;;;;;7.44;76.37;98702.82;102819;1267;138385;-66
2024/02/05 10:21:34;;;;;;;2.90;1.40;;;;;;;7.31;76.96;98712.52;102453;1268;106955;-66
2024/02/05 10:24:01;;;;;;;2.80;1.30;;;;;;;7.27;77.49;98707.50;102355;1273;97811;-67
2024/02/05 10:26:28;;;;;;;2.80;1.60;;;;;;;7.31;77.67;98697.49;102227;1273;138800;-64
2024/02/05 10:29:05;;;;;;;4.40;2.20;;;;;;;7.39;77.77;98699.20;102352;1272;107469;-66
2024/02/05 10:31:32;;;;;;;6.00;1.60;;;;;;;7.53;77.47;98693.05;102326;1267;139113;-66
2024/02/05 10:33:59;;;;;;;4.30;1.90;;;;;;;7.65;77.20;98683.52;102391;1267;108192;-65
2024/02/05 10:36:27;;;;;;;5.50;2.10;;;;;;;7.79;77.01;98688.42;102397;1267;97828;-65
2024/02/05 10:38:54;;;;;;;5.00;1.70;;;;;;;7.92;76.05;98685.58;102406;1272;113032;-65
2024/02/05 10:41:23;;;;;;;3.50;1.80;;;;;;;8.07;76.79;98689.70;102311;1267;108554;-66
2024/02/05 10:43:50;;;;;;;3.60;1.70;;;;;;;8.26;75.53;98676.85;102126;1267;138225;-65
2024/02/05 10:46:17;;;;;;;2.50;1.50;;;;;;;8.34;74.36;98679.10;102137;1268;106369;-67
2024/02/05 10:48:45;;;;;;;3.20;1.50;;;;;;;8.37;74.27;98677.39;102088;1271;139316;-65
2024/02/05 10:51:20;;;;;;;3.90;2.20;;;;;;;8.35;73.18;98677.15;102230;1268;112159;-66
2024/02/05 10:53:48;;;;;;;4.10;1.90;;;;;;;8.27;72.42;98668.00;102257;1273;108542;-66
2024/02/05 10:56:15;;;;;;;3.80;1.60;;;;;;;8.17;71.93;98684.40;102296;1273;138505;-66
2024/02/05 10:58:43;;;;;;;2.50;1.30;;;;;;;8.11;73.03;98693.89;102712;1268;106937;-65
2024/02/05 11:01:11;;;;;;;2.80;1.40;;;;;;;8.07;73.58;98701.48;102316;1272;138359;-65
2024/02/05 11:03:41;;;;;;;3.20;1.20;;;;;;;8.03;73.56;98685.57;102261;1267;112370;-65
2024/02/05 11:06:10;;;;;;;1.90;1.10;;;;;;;7.96;73.38;98689.04;102244;1267;107636;-66
2024/02/05 11:08:40;;;;;;;1.90;1.10;;;;;;;7.96;73.80;98693.86;102162;1268;138192;-65
2024/02/05 11:11:12;;;;;;;3.00;1.30;;;;;;;7.96;73.66;98686.11;103528;1268;109231;-64
2024/02/05 11:13:49;;;;;;;2.30;1.10;;;;;;;7.97;73.87;98697.28;102406;1273;139358;-65
2024/02/05 11:16:18;;;;;;;2.30;1.20;;;;;;;8.02;73.60;98688.04;102355;1268;111125;-67
2024/02/05 11:18:49;;;;;;;2.20;1.10;;;;;;;8.03;72.72;98684.38;102113;1267;139642;-67
2024/02/05 11:21:19;;;;;;;1.80;1.20;;;;;;;8.04;72.63;98697.28;102307;1267;97774;-65
2024/02/05 11:23:48;;;;;;;4.10;1.40;;;;;;;8.05;72.78;98694.48;102412;1267;108710;-66
2024/02/05 11:26:16;;;;;;;2.00;1.30;;;;;;;8.11;73.09;98696.95;102354;1271;137510;-66
2024/02/05 11:28:43;;;;;;;2.90;1.90;;;;;;;8.22;73.04;98703.71;102361;1267;111798;-66